ADDS METAR Data INFO
IDs: Format: Raw Decoded Include TAF

Data at: 0456 UTC 23 May 2017

KGNC 230435Z AUTO 00000KT 10SM CLR 16/11 A2994 RMK AO2 T01640108
KGNC 230415Z AUTO 19003KT 10SM CLR 17/13 A2994 RMK AO2 T01670130
KGNC 230355Z AUTO 00000KT 10SM CLR 17/12 A2994 RMK AO2 P0001 T01710117
KGNC 230335Z AUTO 12008KT 10SM SCT021 SCT029 SCT049 17/12 A2995 RMK AO2 P0001 T01710115
KGNC 230315Z AUTO 07013G25KT 10SM RA SCT027 SCT048 BKN090 18/12 A3002 RMK AO2 P0001 T01780119
KGNC 230255Z AUTO 00000KT 10SM SCT080 SCT090 20/13 A3003 RMK AO2 T02010133
KGNC 230235Z AUTO 22005KT 10SM CLR 20/14 A3002 RMK AO2 T01970136
KGNC 230215Z AUTO 00000KT 10SM CLR 20/14 A3001 RMK AO2 T02000135
KGNC 230155Z AUTO 00000KT 10SM -RA CLR 20/14 A3000 RMK AO2 T02030138
KGNC 230135Z AUTO 19004KT 10SM -RA CLR 21/14 A3000 RMK AO2 T02110135
KGNC 230115Z AUTO 00000KT 10SM CLR 22/12 A3000 RMK AO2 T02170121
KGNC 230055Z AUTO 16007KT 10SM CLR 22/12 A2996 RMK AO2 T02200117
KGNC 230035Z AUTO 13004KT 10SM CLR 22/11 A2995 RMK AO2 T02240112
KGNC 230015Z AUTO 10007KT 10SM CLR 23/12 A2995 RMK AO2 T02250115
KGNC 222355Z AUTO 09008KT 10SM CLR 23/12 A2996 RMK AO2 T02290117 10250 20175
KGNC 222335Z AUTO 09006KT 10SM CLR 23/12 A2996 RMK AO2 T02330118
KGNC 222315Z AUTO 00000KT 10SM CLR 23/12 A2997 RMK AO2 T02310120
KGNC 222255Z AUTO 04006KT 10SM CLR 24/12 A2998 RMK AO2 T02360123
KGNC 222235Z AUTO 36007KT 10SM CLR 23/12 A2998 RMK AO2 T02340121
KGNC 222215Z AUTO 01004KT 10SM CLR 24/12 A2997 RMK AO2 T02350124
KGNC 222155Z AUTO 03006KT 10SM CLR 25/13 A2997 RMK AO2 T02460127
KGNC 222135Z AUTO 36003KT 10SM CLR 24/13 A2999 RMK AO2 T02440127
KGNC 222115Z AUTO 02004KT 10SM CLR 24/13 A3000 RMK AO2 T02410128
KGNC 222055Z AUTO 02003KT 10SM CLR 24/13 A3000 RMK AO2 T02350131
KGNC 222035Z AUTO 02004KT 10SM CLR 23/13 A3001 RMK AO2 T02310130
KGNC 222015Z AUTO 00000KT 10SM SCT030 22/13 A3002 RMK AO2 T02210130
KGNC 221955Z AUTO 02005KT 10SM SCT030 22/13 A3003 RMK AO2 T02150130
KGNC 221935Z AUTO 00000KT 10SM SCT026 SCT030 21/13 A3004 RMK AO2 T02120132
KGNC 221915Z AUTO 04004KT 10SM BKN024 OVC029 20/13 A3005 RMK AO2 T01990133
KGNC 221855Z AUTO 00000KT 10SM BKN022 BKN029 19/13 A3006 RMK AO2 T01910131
KGNC 221835Z AUTO 00000KT 10SM BKN020 OVC028 19/13 A3007 RMK AO2 T01880133
KGNC 221815Z AUTO 00000KT 10SM BKN020 OVC025 18/13 A3007 RMK AO2 T01830132
KGNC 221755Z AUTO 00000KT 10SM OVC016 18/13 A3009 RMK AO2 T01750131 10180 20130
KGNC 221735Z AUTO 00000KT 10SM OVC014 17/13 A3009 RMK AO2 T01710131
KGNC 221715Z AUTO 00000KT 10SM OVC014 17/13 A3009 RMK AO2 T01700131
KGNC 221655Z AUTO 00000KT 10SM OVC012 17/13 A3009 RMK AO2 T01680131
KGNC 221635Z AUTO 00000KT 10SM OVC012 17/13 A3009 RMK AO2 T01670130
KGNC 221615Z AUTO 00000KT 10SM OVC008 16/13 A3010 RMK AO2 T01570128
KGNC 221555Z AUTO 00000KT 10SM OVC006 15/13 A3010 RMK AO2 T01520126
KGNC 221535Z AUTO 00000KT 7SM OVC006 15/13 A3011 RMK AO2 T01490126
KGNC 221515Z AUTO 11005KT 7SM OVC006 15/13 A3011 RMK AO2 T01450128
KGNC 221455Z AUTO 11007KT 7SM OVC006 14/13 A3011 RMK AO2 T01410126
KGNC 221435Z AUTO 12003KT 10SM OVC006 14/13 A3012 RMK AO2 T01380125
KGNC 221415Z AUTO 00000KT 10SM OVC006 14/13 A3012 RMK AO2 T01400126
KGNC 221355Z AUTO 10003KT 7SM OVC006 14/13 A3012 RMK AO2 T01360128
KGNC 221335Z AUTO 08006KT 2 1/2SM BR OVC006 13/13 A3012 RMK AO2 T01310126
KGNC 221315Z AUTO 00000KT 2SM BR OVC004 13/13 A3014 RMK AO2 T01300127
KGNC 221255Z AUTO 00000KT 2SM BR OVC004 13/13 A3013 RMK AO2 T01300125
KGNC 221235Z AUTO 00000KT 5SM BR OVC006 13/12 A3013 RMK AO2 T01310124
KGNC 221215Z AUTO 00000KT 7SM OVC006 13/12 A3013 RMK AO2 T01310123
KGNC 221155Z AUTO 00000KT 10SM OVC004 13/12 A3013 RMK AO2 T01310123 10135 20122
KGNC 221135Z AUTO 00000KT 10SM OVC004 13/12 A3013 RMK AO2 T01310123
KGNC 221115Z AUTO 00000KT 7SM OVC004 13/12 A3011 RMK AO2 T01280124
KGNC 221055Z AUTO 00000KT 5SM BR OVC002 13/12 A3011 RMK AO2 T01260123
KGNC 221035Z AUTO 00000KT 2 1/2SM BR OVC002 13/12 A3011 RMK AO2 T01250121
KGNC 221015Z AUTO 00000KT 2 1/2SM BR OVC002 12/12 A3011 RMK AO2 T01230119
KGNC 220955Z AUTO 13006KT 7SM OVC004 12/12 A3011 RMK AO2 T01230115
KGNC 220935Z AUTO 12007KT 10SM OVC006 13/11 A3011 RMK AO2 T01250113
KGNC 220915Z AUTO 12008KT 10SM OVC006 13/11 A3012 RMK AO2 T01290112
KGNC 220855Z AUTO 11006KT 10SM OVC006 13/11 A3013 RMK AO2 T01310111
KGNC 220835Z AUTO 11007KT 10SM OVC006 13/11 A3013 RMK AO2 T01300108
KGNC 220815Z AUTO 11009KT 10SM BKN006 OVC013 13/11 A3015 RMK AO2 T01310107
KGNC 220755Z AUTO 10009KT 10SM OVC013 14/11 A3016 RMK AO2 T01350111
KGNC 220735Z AUTO 08006KT 10SM OVC013 13/11 A3016 RMK AO2 T01330111
KGNC 220715Z AUTO 00000KT 10SM OVC015 13/11 A3015 RMK AO2 T01280107
KGNC 220655Z AUTO 00000KT 10SM OVC015 13/11 A3015 RMK AO2 T01300105
KGNC 220635Z AUTO 11007KT 10SM OVC015 13/11 A3015 RMK AO2 T01300105
KGNC 220615Z AUTO 00000KT 10SM OVC015 13/10 A3015 RMK AO2 T01250103
KGNC 220555Z AUTO 00000KT 10SM BKN017 13/10 A3015 RMK AO2 T01250102 10200 20117 402140106
KGNC 220535Z AUTO 00000KT 10SM SCT019 12/10 A3015 RMK AO2 T01200098
KGNC 220515Z AUTO 00000KT 10SM SCT019 12/10 A3016 RMK AO2 T01190095
KGNC 220455Z AUTO 00000KT 10SM CLR 12/10 A3016 RMK AO2 T01200095
KGNC 220435Z AUTO 00000KT 10SM CLR 13/10 A3016 RMK AO2 T01250097
KGNC 220415Z AUTO 00000KT 10SM CLR 13/10 A3015 RMK AO2 T01290101
KGNC 220355Z AUTO 00000KT 10SM CLR 14/10 A3014 RMK AO2 T01350103
KGNC 220335Z AUTO 00000KT 10SM CLR 14/11 A3013 RMK AO2 T01400105
KGNC 220315Z AUTO 00000KT 10SM CLR 14/11 A3013 RMK AO2 T01440105
KGNC 220255Z AUTO 00000KT 10SM CLR 15/11 A3011 RMK AO2 T01520106
KGNC 220235Z AUTO 00000KT 10SM CLR 16/11 A3011 RMK AO2 T01600106
KGNC 220215Z AUTO 15003KT 10SM CLR 17/11 A3011 RMK AO2 T01650107
KGNC 220155Z AUTO 15008KT 10SM CLR 18/11 A3010 RMK AO2 T01750107
KGNC 220135Z AUTO 14010KT 10SM CLR 18/11 A3010 RMK AO2 T01810106
KGNC 220115Z AUTO 14012KT 10SM CLR 19/11 A3010 RMK AO2 T01880107
KGNC 220055Z AUTO 14012KT 10SM CLR 19/10 A3009 RMK AO2 T01930095
KGNC 220035Z AUTO 13013KT 10SM CLR 20/09 A3010 RMK AO2 T01960089
KGNC 220015Z AUTO 14010KT 10SM CLR 20/09 A3010 RMK AO2 T01970090
KGNC 212355Z AUTO 13013KT 10SM SCT031 20/09 A3011 RMK AO2 T02000088 10214 20182
KGNC 212335Z AUTO 13013G19KT 10SM SCT029 20/08 A3011 RMK AO2 T01970081
KGNC 212315Z AUTO 13016G19KT 10SM SCT029 21/08 A3011 RMK AO2 T02060083
KGNC 212255Z AUTO 14017KT 10SM SCT029 21/09 A3012 RMK AO2 T02070085
KGNC 212235Z AUTO 13015G20KT 10SM CLR 21/08 A3011 RMK AO2 T02110078
KGNC 212215Z AUTO 12015KT 10SM CLR 21/09 A3012 RMK AO2 T02110086
KGNC 212155Z AUTO 13015G18KT 10SM CLR 21/09 A3012 RMK AO2 T02130086
KGNC 212135Z AUTO 13015G21KT 10SM CLR 21/08 A3013 RMK AO2 T02120081
KGNC 212115Z AUTO 13014G20KT 10SM CLR 20/08 A3014 RMK AO2 T02000078
KGNC 212055Z AUTO 13012KT 10SM SCT050 19/08 A3015 RMK AO2 T01900078
KGNC 212035Z AUTO 13012KT 10SM BKN036 BKN050 18/07 A3016 RMK AO2 T01840073
KGNC 212015Z AUTO 14014G18KT 10SM SCT031 OVC036 18/07 A3017 RMK AO2 T01820069
KGNC 211955Z AUTO 15017G23KT 10SM OVC033 19/06 A3018 RMK AO2 T01860059
KGNC 211935Z AUTO 13015G22KT 10SM BKN031 19/07 A3017 RMK AO2 T01910067
KGNC 211915Z AUTO 13013G19KT 10SM SCT031 20/08 A3016 RMK AO2 T01950081
KGNC 211855Z AUTO 13014G19KT 10SM BKN031 19/09 A3016 RMK AO2 T01910089
KGNC 211835Z AUTO 12011G17KT 10SM -RA BKN031 18/10 A3016 RMK AO2 T01830103
KGNC 211815Z AUTO 13014G20KT 10SM OVC031 19/10 A3017 RMK AO2 T01910095
KGNC 211755Z AUTO 11013G19KT 10SM OVC029 19/09 A3018 RMK AO2 T01910087 10208 20106
KGNC 211735Z AUTO 10013G18KT 10SM OVC029 20/09 A3018 RMK AO2 T01950089
KGNC 211715Z AUTO 12015G21KT 10SM OVC031 20/10 A3019 RMK AO2 T01960095


Page loaded:  04:56 UTC  |   09:56 PM Pacific  |   10:56 PM Mountain  |   11:56 PM Central  |   12:56 AM Eastern

 

ADVISORIES

FORECASTS

FORECASTS

OBSERVATIONS

USER TOOLS

ABOUT US